sensor_id;sensor_type;location;lat;lon;timestamp;pressure;altitude;pressure_sealevel;temperature;humidity
50550;BME280;36505;52.512;13.460;2022-10-16T00:00:56;100634.69;;;14.02;92.37
50550;BME280;36505;52.512;13.460;2022-10-16T00:03:22;100632.50;;;14.04;92.36
50550;BME280;36505;52.512;13.460;2022-10-16T00:05:47;100636.09;;;14.05;92.34
50550;BME280;36505;52.512;13.460;2022-10-16T00:08:12;100630.59;;;14.10;92.49
50550;BME280;36505;52.512;13.460;2022-10-16T00:10:39;100640.53;;;14.16;92.27
50550;BME280;36505;52.512;13.460;2022-10-16T00:13:05;100640.00;;;14.19;92.34
50550;BME280;36505;52.512;13.460;2022-10-16T00:15:33;100644.13;;;14.21;92.20
50550;BME280;36505;52.512;13.460;2022-10-16T00:18:01;100645.78;;;14.22;92.12
50550;BME280;36505;52.512;13.460;2022-10-16T00:20:26;100651.03;;;14.29;91.87
50550;BME280;36505;52.512;13.460;2022-10-16T00:22:52;100649.38;;;14.33;91.82
50550;BME280;36505;52.512;13.460;2022-10-16T00:25:17;100640.84;;;14.35;91.60
50550;BME280;36505;52.512;13.460;2022-10-16T00:27:42;100638.66;;;14.32;91.66
50550;BME280;36505;52.512;13.460;2022-10-16T00:30:08;100656.88;;;14.38;91.54
50550;BME280;36505;52.512;13.460;2022-10-16T00:32:33;100663.22;;;14.43;91.67
50550;BME280;36505;52.512;13.460;2022-10-16T00:34:59;100661.88;;;14.46;91.39
50550;BME280;36505;52.512;13.460;2022-10-16T00:37:24;100665.97;;;14.48;91.23
50550;BME280;36505;52.512;13.460;2022-10-16T00:39:49;100667.66;;;14.49;91.37
50550;BME280;36505;52.512;13.460;2022-10-16T00:42:16;100665.72;;;14.50;91.10
50550;BME280;36505;52.512;13.460;2022-10-16T00:44:46;100664.63;;;14.56;91.20
50550;BME280;36505;52.512;13.460;2022-10-16T00:47:28;100660.47;;;14.53;91.12
50550;BME280;36505;52.512;13.460;2022-10-16T00:49:56;100659.13;;;14.56;90.96
50550;BME280;36505;52.512;13.460;2022-10-16T00:52:23;100659.38;;;14.54;90.86
50550;BME280;36505;52.512;13.460;2022-10-16T00:54:49;100662.44;;;14.58;90.86
50550;BME280;36505;52.512;13.460;2022-10-16T00:57:17;100660.78;;;14.62;90.83
50550;BME280;36505;52.512;13.460;2022-10-16T00:59:42;100659.94;;;14.61;90.73
50550;BME280;36505;52.512;13.460;2022-10-16T01:02:12;100663.28;;;14.63;90.61
50550;BME280;36505;52.512;13.460;2022-10-16T01:04:40;100673.47;;;14.63;90.56
50550;BME280;36505;52.512;13.460;2022-10-16T01:17:55;100667.41;;;14.66;90.66
50550;BME280;36505;52.512;13.460;2022-10-16T01:20:31;100675.13;;;14.64;90.80
50550;BME280;36505;52.512;13.460;2022-10-16T01:23:23;100685.31;;;14.63;90.64
50550;BME280;36505;52.512;13.460;2022-10-16T01:26:10;100683.66;;;14.62;90.48
50550;BME280;36505;52.512;13.460;2022-10-16T01:31:07;100692.19;;;14.61;90.82
50550;BME280;36505;52.512;13.460;2022-10-16T01:33:40;100683.91;;;14.56;90.89
50550;BME280;36505;52.512;13.460;2022-10-16T01:36:11;100688.06;;;14.58;90.88
50550;BME280;36505;52.512;13.460;2022-10-16T01:38:39;100694.41;;;14.59;90.87
50550;BME280;36505;52.512;13.460;2022-10-16T01:41:09;100688.34;;;14.57;91.07
50550;BME280;36505;52.512;13.460;2022-10-16T01:43:42;100695.75;;;14.56;90.88
50550;BME280;36505;52.512;13.460;2022-10-16T01:46:10;100695.75;;;14.56;91.00
50550;BME280;36505;52.512;13.460;2022-10-16T01:48:39;100700.19;;;14.57;91.16
50550;BME280;36505;52.512;13.460;2022-10-16T01:51:07;100693.53;;;14.53;91.34
50550;BME280;36505;52.512;13.460;2022-10-16T01:53:34;100699.34;;;14.57;91.14
50550;BME280;36505;52.512;13.460;2022-10-16T01:56:02;100694.69;;;14.57;91.31
50550;BME280;36505;52.512;13.460;2022-10-16T01:58:29;100705.69;;;14.57;91.11
50550;BME280;36505;52.512;13.460;2022-10-16T02:00:59;100703.47;;;14.54;91.19
50550;BME280;36505;52.512;13.460;2022-10-16T02:03:26;100711.22;;;14.57;91.27
50550;BME280;36505;52.512;13.460;2022-10-16T02:05:54;100717.56;;;14.58;91.02
50550;BME280;36505;52.512;13.460;2022-10-16T02:08:22;100712.88;;;14.58;91.34
50550;BME280;36505;52.512;13.460;2022-10-16T02:10:49;100704.56;;;14.53;91.30
50550;BME280;36505;52.512;13.460;2022-10-16T02:13:26;100707.88;;;14.60;91.41
50550;BME280;36505;52.512;13.460;2022-10-16T02:15:52;100715.34;;;14.60;91.46
50550;BME280;36505;52.512;13.460;2022-10-16T02:18:18;100720.03;;;14.65;91.31
50550;BME280;36505;52.512;13.460;2022-10-16T02:20:50;100728.88;;;14.67;91.25
50550;BME280;36505;52.512;13.460;2022-10-16T02:23:24;100731.63;;;14.67;91.08
50550;BME280;36505;52.512;13.460;2022-10-16T02:25:54;100742.38;;;14.68;91.00
50550;BME280;36505;52.512;13.460;2022-10-16T02:28:27;100747.09;;;14.73;90.86
50550;BME280;36505;52.512;13.460;2022-10-16T02:31:01;100730.53;;;14.73;91.03
50550;BME280;36505;52.512;13.460;2022-10-16T02:33:29;100731.38;;;14.73;90.72
50550;BME280;36505;52.512;13.460;2022-10-16T02:35:56;100728.06;;;14.76;90.43
50550;BME280;36505;52.512;13.460;2022-10-16T02:38:23;100726.69;;;14.79;90.40
50550;BME280;36505;52.512;13.460;2022-10-16T02:40:49;100729.97;;;14.81;90.04
50550;BME280;36505;52.512;13.460;2022-10-16T02:43:15;100738.00;;;14.82;89.86
50550;BME280;36505;52.512;13.460;2022-10-16T02:45:41;100739.38;;;14.85;89.85
50550;BME280;36505;52.512;13.460;2022-10-16T02:48:06;100732.47;;;14.82;89.57
50550;BME280;36505;52.512;13.460;2022-10-16T02:50:32;100732.78;;;14.86;89.43
50550;BME280;36505;52.512;13.460;2022-10-16T02:52:57;100743.53;;;14.87;89.41
50550;BME280;36505;52.512;13.460;2022-10-16T02:55:22;100739.94;;;14.87;89.33
50550;BME280;36505;52.512;13.460;2022-10-16T02:57:48;100745.47;;;14.87;89.65
50550;BME280;36505;52.512;13.460;2022-10-16T03:00:15;100744.34;;;14.88;89.06
50550;BME280;36505;52.512;13.460;2022-10-16T03:02:40;100745.16;;;14.88;89.16
50550;BME280;36505;52.512;13.460;2022-10-16T03:05:07;100742.97;;;14.90;89.01
50550;BME280;36505;52.512;13.460;2022-10-16T03:07:32;100740.47;;;14.89;88.93
50550;BME280;36505;52.512;13.460;2022-10-16T03:09:57;100738.81;;;14.88;88.95
50550;BME280;36505;52.512;13.460;2022-10-16T03:12:26;100744.91;;;14.85;88.77
50550;BME280;36505;52.512;13.460;2022-10-16T03:14:51;100758.94;;;14.83;88.88
50550;BME280;36505;52.512;13.460;2022-10-16T03:17:16;100752.88;;;14.81;89.02
50550;BME280;36505;52.512;13.460;2022-10-16T03:19:42;100753.16;;;14.80;89.34
50550;BME280;36505;52.512;13.460;2022-10-16T03:22:07;100761.69;;;14.78;89.43
50550;BME280;36505;52.512;13.460;2022-10-16T03:24:33;100755.63;;;14.76;89.36
50550;BME280;36505;52.512;13.460;2022-10-16T03:26:58;100766.66;;;14.76;89.46
50550;BME280;36505;52.512;13.460;2022-10-16T03:29:24;100764.16;;;14.75;89.42
50550;BME280;36505;52.512;13.460;2022-10-16T03:31:51;100759.75;;;14.74;89.47
50550;BME280;36505;52.512;13.460;2022-10-16T03:34:16;100764.72;;;14.77;89.55
50550;BME280;36505;52.512;13.460;2022-10-16T03:36:42;100775.19;;;14.75;89.44
50550;BME280;36505;52.512;13.460;2022-10-16T03:39:07;100778.22;;;14.73;89.41
50550;BME280;36505;52.512;13.460;2022-10-16T03:41:32;100785.09;;;14.71;89.31
50550;BME280;36505;52.512;13.460;2022-10-16T03:43:57;100795.56;;;14.69;89.48
50550;BME280;36505;52.512;13.460;2022-10-16T03:46:23;100785.63;;;14.68;89.65
50550;BME280;36505;52.512;13.460;2022-10-16T03:48:48;100785.09;;;14.66;89.71
50550;BME280;36505;52.512;13.460;2022-10-16T03:51:13;100801.88;;;14.64;89.87
50550;BME280;36505;52.512;13.460;2022-10-16T03:53:39;100803.25;;;14.61;90.16
50550;BME280;36505;52.512;13.460;2022-10-16T03:56:04;100802.16;;;14.57;89.96
50550;BME280;36505;52.512;13.460;2022-10-16T03:58:30;100806.00;;;14.61;89.69
50550;BME280;36505;52.512;13.460;2022-10-16T04:00:55;100804.63;;;14.59;90.01
50550;BME280;36505;52.512;13.460;2022-10-16T04:03:20;100818.69;;;14.57;90.08
50550;BME280;36505;52.512;13.460;2022-10-16T04:05:46;100806.00;;;14.56;90.11
50550;BME280;36505;52.512;13.460;2022-10-16T04:08:11;100797.16;;;14.49;90.14
50550;BME280;36505;52.512;13.460;2022-10-16T04:10:37;100812.00;;;14.48;90.48
50550;BME280;36505;52.512;13.460;2022-10-16T04:13:02;100818.66;;;14.52;90.55
50550;BME280;36505;52.512;13.460;2022-10-16T04:15:28;100826.34;;;14.50;90.51
50550;BME280;36505;52.512;13.460;2022-10-16T04:17:53;100826.63;;;14.49;90.66
50550;BME280;36505;52.512;13.460;2022-10-16T04:20:18;100824.69;;;14.49;90.84
50550;BME280;36505;52.512;13.460;2022-10-16T04:22:44;100818.34;;;14.44;90.80
50550;BME280;36505;52.512;13.460;2022-10-16T04:25:10;100827.16;;;14.46;90.72
50550;BME280;36505;52.512;13.460;2022-10-16T04:27:37;100821.91;;;14.44;90.91
50550;BME280;36505;52.512;13.460;2022-10-16T04:30:03;100816.94;;;14.41;90.98
50550;BME280;36505;52.512;13.460;2022-10-16T04:32:28;100823.00;;;14.43;91.20
50550;BME280;36505;52.512;13.460;2022-10-16T04:34:53;100818.34;;;14.44;91.08
50550;BME280;36505;52.512;13.460;2022-10-16T04:37:23;100817.50;;;14.43;90.96
50550;BME280;36505;52.512;13.460;2022-10-16T04:39:48;100813.09;;;14.42;91.05
50550;BME280;36505;52.512;13.460;2022-10-16T04:42:13;100807.00;;;14.40;91.02
50550;BME280;36505;52.512;13.460;2022-10-16T04:44:39;100796.78;;;14.36;91.32
50550;BME280;36505;52.512;13.460;2022-10-16T04:47:05;100804.47;;;14.34;91.45
50550;BME280;36505;52.512;13.460;2022-10-16T04:49:30;100795.09;;;14.30;91.40
50550;BME280;36505;52.512;13.460;2022-10-16T04:51:56;100805.00;;;14.31;91.65
50550;BME280;36505;52.512;13.460;2022-10-16T04:54:22;100809.13;;;14.28;91.53
50550;BME280;36505;52.512;13.460;2022-10-16T04:56:47;100799.50;;;14.26;91.78
50550;BME280;36505;52.512;13.460;2022-10-16T04:59:16;100802.19;;;14.20;91.86
50550;BME280;36505;52.512;13.460;2022-10-16T05:01:42;100809.34;;;14.16;92.16
50550;BME280;36505;52.512;13.460;2022-10-16T05:04:08;100817.88;;;14.15;92.51
50550;BME280;36505;52.512;13.460;2022-10-16T05:06:33;100824.19;;;14.10;92.70
50550;BME280;36505;52.512;13.460;2022-10-16T05:08:58;100828.53;;;14.06;92.88
50550;BME280;36505;52.512;13.460;2022-10-16T05:11:24;100836.78;;;14.01;93.38
50550;BME280;36505;52.512;13.460;2022-10-16T05:13:49;100850.50;;;13.96;93.34
50550;BME280;36505;52.512;13.460;2022-10-16T05:16:15;100852.72;;;13.99;93.35
50550;BME280;36505;52.512;13.460;2022-10-16T05:18:40;100853.56;;;14.00;93.52
50550;BME280;36505;52.512;13.460;2022-10-16T05:21:05;100853.00;;;13.98;93.70
50550;BME280;36505;52.512;13.460;2022-10-16T05:23:31;100845.53;;;13.93;93.72
50550;BME280;36505;52.512;13.460;2022-10-16T05:25:57;100852.69;;;13.94;93.68
50550;BME280;36505;52.512;13.460;2022-10-16T05:28:25;100852.13;;;13.92;93.61
50550;BME280;36505;52.512;13.460;2022-10-16T05:30:50;100850.19;;;13.93;93.80
50550;BME280;36505;52.512;13.460;2022-10-16T05:33:16;100846.91;;;13.91;93.70
50550;BME280;36505;52.512;13.460;2022-10-16T05:35:42;100850.72;;;13.84;94.07
50550;BME280;36505;52.512;13.460;2022-10-16T05:38:07;100850.41;;;13.86;94.20
50550;BME280;36505;52.512;13.460;2022-10-16T05:40:33;100847.41;;;13.88;93.94
50550;BME280;36505;52.512;13.460;2022-10-16T05:42:58;100861.16;;;13.88;93.95
50550;BME280;36505;52.512;13.460;2022-10-16T05:45:23;100866.94;;;13.86;94.13
50550;BME280;36505;52.512;13.460;2022-10-16T05:47:48;100871.59;;;13.85;94.06
50550;BME280;36505;52.512;13.460;2022-10-16T05:50:14;100876.31;;;13.85;93.99
50550;BME280;36505;52.512;13.460;2022-10-16T05:52:39;100873.34;;;13.92;94.01
50550;BME280;36505;52.512;13.460;2022-10-16T05:55:05;100862.88;;;13.94;94.13
50550;BME280;36505;52.512;13.460;2022-10-16T05:57:30;100867.59;;;13.98;94.02
50550;BME280;36505;52.512;13.460;2022-10-16T05:59:56;100866.81;;;14.03;93.52
50550;BME280;36505;52.512;13.460;2022-10-16T06:02:21;100860.75;;;14.06;93.26
50550;BME280;36505;52.512;13.460;2022-10-16T06:04:47;100862.97;;;14.04;92.95
50550;BME280;36505;52.512;13.460;2022-10-16T06:07:12;100865.97;;;14.02;92.83
50550;BME280;36505;52.512;13.460;2022-10-16T06:09:37;100873.13;;;14.03;92.78
50550;BME280;36505;52.512;13.460;2022-10-16T06:12:03;100856.53;;;13.93;92.88
50550;BME280;36505;52.512;13.460;2022-10-16T06:14:28;100870.69;;;14.07;92.59
50550;BME280;36505;52.512;13.460;2022-10-16T06:16:53;100883.66;;;14.11;92.54
50550;BME280;36505;52.512;13.460;2022-10-16T06:19:19;100879.03;;;14.17;92.50
50550;BME280;36505;52.512;13.460;2022-10-16T06:21:44;100886.47;;;14.21;92.12
50550;BME280;36505;52.512;13.460;2022-10-16T06:24:10;100875.41;;;14.11;92.26
50550;BME280;36505;52.512;13.460;2022-10-16T06:26:35;100899.66;;;14.19;92.08
50550;BME280;36505;52.512;13.460;2022-10-16T06:29:02;100886.47;;;14.21;92.05
50550;BME280;36505;52.512;13.460;2022-10-16T06:31:29;100879.03;;;14.22;92.11
50550;BME280;36505;52.512;13.460;2022-10-16T06:33:56;100889.50;;;14.20;91.98
50550;BME280;36505;52.512;13.460;2022-10-16T06:36:22;100899.41;;;14.21;92.20
50550;BME280;36505;52.512;13.460;2022-10-16T06:38:48;100899.41;;;14.21;92.16
50550;BME280;36505;52.512;13.460;2022-10-16T06:41:19;100913.03;;;14.33;91.95
50550;BME280;36505;52.512;13.460;2022-10-16T06:43:44;100915.22;;;14.36;91.69
50550;BME280;36505;52.512;13.460;2022-10-16T06:46:11;100894.25;;;14.30;91.55
50550;BME280;36505;52.512;13.460;2022-10-16T06:48:37;100918.31;;;14.39;91.53
50550;BME280;36505;52.512;13.460;2022-10-16T06:53:34;100926.31;;;14.41;91.36
50550;BME280;36505;52.512;13.460;2022-10-16T06:56:13;100923.59;;;14.46;91.24
50550;BME280;36505;52.512;13.460;2022-10-16T06:58:39;100928.81;;;14.47;91.14
50550;BME280;36505;52.512;13.460;2022-10-16T07:01:05;100935.47;;;14.51;91.02
50550;BME280;36505;52.512;13.460;2022-10-16T07:03:31;100929.41;;;14.54;90.70
50550;BME280;36505;52.512;13.460;2022-10-16T07:06:00;100930.25;;;14.55;90.89
50550;BME280;36505;52.512;13.460;2022-10-16T07:08:26;100922.81;;;14.55;90.73
50550;BME280;36505;52.512;13.460;2022-10-16T07:11:01;100942.22;;;14.76;90.34
50550;BME280;36505;52.512;13.460;2022-10-16T07:13:26;100947.25;;;14.89;89.65
50550;BME280;36505;52.512;13.460;2022-10-16T07:15:52;100952.00;;;14.98;89.52
50550;BME280;36505;52.512;13.460;2022-10-16T07:18:17;100950.41;;;15.13;88.83
50550;BME280;36505;52.512;13.460;2022-10-16T07:20:42;100955.97;;;15.23;88.38
50550;BME280;36505;52.512;13.460;2022-10-16T07:23:08;100958.78;;;15.33;88.46
50550;BME280;36505;52.512;13.460;2022-10-16T07:25:33;100954.66;;;15.40;87.72
50550;BME280;36505;52.512;13.460;2022-10-16T07:27:58;100950.25;;;15.39;87.23
50550;BME280;36505;52.512;13.460;2022-10-16T07:30:24;100956.91;;;15.49;87.08
50550;BME280;36505;52.512;13.460;2022-10-16T07:32:49;100957.78;;;15.59;86.33
50550;BME280;36505;52.512;13.460;2022-10-16T07:35:14;100956.69;;;15.65;86.11
50550;BME280;36505;52.512;13.460;2022-10-16T07:37:44;100948.41;;;15.70;85.82
50550;BME280;36505;52.512;13.460;2022-10-16T07:40:09;100942.38;;;15.89;85.29
50550;BME280;36505;52.512;13.460;2022-10-16T07:42:35;100950.66;;;16.09;84.27
50550;BME280;36505;52.512;13.460;2022-10-16T07:45:00;100959.78;;;16.09;84.68
50550;BME280;36505;52.512;13.460;2022-10-16T07:47:25;100957.84;;;16.10;83.65
50550;BME280;36505;52.512;13.460;2022-10-16T07:49:51;100959.22;;;16.02;83.76
50550;BME280;36505;52.512;13.460;2022-10-16T07:52:16;100955.91;;;16.05;84.16
50550;BME280;36505;52.512;13.460;2022-10-16T07:54:41;100943.75;;;16.01;84.42
50550;BME280;36505;52.512;13.460;2022-10-16T07:57:07;100958.94;;;16.04;84.37
50550;BME280;36505;52.512;13.460;2022-10-16T07:59:32;100959.22;;;16.02;84.28
50550;BME280;36505;52.512;13.460;2022-10-16T08:01:57;100958.13;;;16.03;84.42
50550;BME280;36505;52.512;13.460;2022-10-16T08:04:22;100958.66;;;16.05;84.31
50550;BME280;36505;52.512;13.460;2022-10-16T08:06:48;100968.59;;;16.06;84.44
50550;BME280;36505;52.512;13.460;2022-10-16T08:09:14;100968.59;;;16.06;84.44
50550;BME280;36505;52.512;13.460;2022-10-16T08:11:40;100978.53;;;16.17;83.83
50550;BME280;36505;52.512;13.460;2022-10-16T08:14:05;100988.50;;;16.18;83.72
50550;BME280;36505;52.512;13.460;2022-10-16T08:16:31;101003.44;;;16.23;83.95
50550;BME280;36505;52.512;13.460;2022-10-16T08:18:56;100996.81;;;16.24;83.73
50550;BME280;36505;52.512;13.460;2022-10-16T08:21:22;101001.22;;;16.25;83.52
50550;BME280;36505;52.512;13.460;2022-10-16T08:23:49;100986.84;;;16.23;83.05
50550;BME280;36505;52.512;13.460;2022-10-16T08:26:14;100991.00;;;16.30;83.13
50550;BME280;36505;52.512;13.460;2022-10-16T08:28:39;100980.22;;;16.39;83.32
50550;BME280;36505;52.512;13.460;2022-10-16T08:31:06;100993.47;;;16.52;82.60
50550;BME280;36505;52.512;13.460;2022-10-16T08:33:32;100995.69;;;16.60;82.05
50550;BME280;36505;52.512;13.460;2022-10-16T08:35:59;100998.75;;;16.69;81.41
50550;BME280;36505;52.512;13.460;2022-10-16T08:38:25;101005.09;;;16.74;80.98
50550;BME280;36505;52.512;13.460;2022-10-16T08:40:50;101002.88;;;16.81;81.02
50550;BME280;36505;52.512;13.460;2022-10-16T08:43:52;100995.09;;;16.98;80.60
50550;BME280;36505;52.512;13.460;2022-10-16T08:49:02;101001.66;;;17.18;79.32
50550;BME280;36505;52.512;13.460;2022-10-16T08:51:32;100993.38;;;17.18;79.07
50550;BME280;36505;52.512;13.460;2022-10-16T08:54:05;101001.41;;;17.19;78.73
50550;BME280;36505;52.512;13.460;2022-10-16T08:56:31;101000.56;;;17.19;78.90
50550;BME280;36505;52.512;13.460;2022-10-16T08:58:59;100999.16;;;17.21;78.85
50550;BME280;36505;52.512;13.460;2022-10-16T09:01:35;100995.84;;;17.14;78.54
50550;BME280;36505;52.512;13.460;2022-10-16T09:14:33;101023.59;;;18.51;73.84
50550;BME280;36505;52.512;13.460;2022-10-16T09:22:52;101041.63;;;18.88;71.78
50550;BME280;36505;52.512;13.460;2022-10-16T09:25:21;101043.00;;;18.85;70.92
50550;BME280;36505;52.512;13.460;2022-10-16T09:27:48;101033.91;;;18.80;71.32
50550;BME280;36505;52.512;13.460;2022-10-16T09:30:18;101025.31;;;19.05;71.16
50550;BME280;36505;52.512;13.460;2022-10-16T09:32:45;101022.88;;;19.51;69.80
50550;BME280;36505;52.512;13.460;2022-10-16T09:35:18;101026.97;;;19.96;68.59
50550;BME280;36505;52.512;13.460;2022-10-16T09:37:50;101021.19;;;20.11;67.28
50550;BME280;36505;52.512;13.460;2022-10-16T09:43:02;101039.69;;;20.40;65.15
50550;BME280;36505;52.512;13.460;2022-10-16T09:45:31;101048.66;;;20.69;64.03
50550;BME280;36505;52.512;13.460;2022-10-16T09:47:56;101047.84;;;21.15;63.79
50550;BME280;36505;52.512;13.460;2022-10-16T09:50:24;101044.28;;;21.55;61.66
50550;BME280;36505;52.512;13.460;2022-10-16T09:53:02;101052.09;;;21.53;61.27
50550;BME280;36505;52.512;13.460;2022-10-16T09:55:27;101066.16;;;21.48;60.41
50550;BME280;36505;52.512;13.460;2022-10-16T09:57:54;101056.44;;;21.32;61.04
50550;BME280;36505;52.512;13.460;2022-10-16T10:00:21;101059.34;;;21.41;60.87
50550;BME280;36505;52.512;13.460;2022-10-16T10:02:47;101068.69;;;21.86;59.31
50550;BME280;36505;52.512;13.460;2022-10-16T10:07:45;101053.25;;;22.74;57.21
50550;BME280;36505;52.512;13.460;2022-10-16T10:12:48;101074.50;;;22.83;56.82
50550;BME280;36505;52.512;13.460;2022-10-16T10:15:14;101092.25;;;22.65;56.57
50550;BME280;36505;52.512;13.460;2022-10-16T10:17:54;101074.19;;;22.27;57.34
50550;BME280;36505;52.512;13.460;2022-10-16T10:22:49;101086.13;;;21.78;57.87
50550;BME280;36505;52.512;13.460;2022-10-16T10:25:37;101082.03;;;21.61;58.64
50550;BME280;36505;52.512;13.460;2022-10-16T10:28:10;101086.47;;;21.62;59.06
50550;BME280;36505;52.512;13.460;2022-10-16T10:31:06;101095.25;;;21.56;59.21
50550;BME280;36505;52.512;13.460;2022-10-16T10:36:16;101087.38;;;21.31;60.20
50550;BME280;36505;52.512;13.460;2022-10-16T10:39:06;101097.50;;;21.40;59.65
50550;BME280;36505;52.512;13.460;2022-10-16T10:44:21;101106.56;;;21.32;59.32
50550;BME280;36505;52.512;13.460;2022-10-16T10:46:56;101100.41;;;21.35;60.03
50550;BME280;36505;52.512;13.460;2022-10-16T11:00:42;101096.78;;;21.35;57.19
50550;BME280;36505;52.512;13.460;2022-10-16T11:06:10;101106.97;;;21.25;56.91
50550;BME280;36505;52.512;13.460;2022-10-16T11:08:37;101103.69;;;21.37;56.60
50550;BME280;36505;52.512;13.460;2022-10-16T11:11:30;101113.09;;;21.55;56.22
50550;BME280;36505;52.512;13.460;2022-10-16T11:16:50;101123.72;;;21.66;56.06
50550;BME280;36505;52.512;13.460;2022-10-16T11:24:59;101108.13;;;21.38;55.87
50550;BME280;36505;52.512;13.460;2022-10-16T11:27:37;101105.00;;;21.26;56.36
50550;BME280;36505;52.512;13.460;2022-10-16T11:30:12;101104.88;;;21.17;56.45
50550;BME280;36505;52.512;13.460;2022-10-16T11:38:35;101114.41;;;20.98;55.98
50550;BME280;36505;52.512;13.460;2022-10-16T11:41:18;101108.25;;;21.01;56.50
50550;BME280;36505;52.512;13.460;2022-10-16T11:43:52;101109.78;;;21.07;56.59
50550;BME280;36505;52.512;13.460;2022-10-16T11:46:24;101104.13;;;21.12;56.26
50550;BME280;36505;52.512;13.460;2022-10-16T11:49:12;101093.69;;;21.04;56.51
50550;BME280;36505;52.512;13.460;2022-10-16T11:51:43;101102.56;;;21.06;56.34
50550;BME280;36505;52.512;13.460;2022-10-16T11:56:57;101109.28;;;20.72;54.08
50550;BME280;36505;52.512;13.460;2022-10-16T11:59:38;101104.78;;;20.58;54.27
50550;BME280;36505;52.512;13.460;2022-10-16T12:04:48;101111.81;;;20.31;56.10
50550;BME280;36505;52.512;13.460;2022-10-16T12:07:22;101129.41;;;20.27;56.76
50550;BME280;36505;52.512;13.460;2022-10-16T12:09:49;101121.41;;;20.20;56.55
50550;BME280;36505;52.512;13.460;2022-10-16T12:12:28;101133.16;;;20.17;57.13
50550;BME280;36505;52.512;13.460;2022-10-16T12:15:27;101136.31;;;20.10;56.55
50550;BME280;36505;52.512;13.460;2022-10-16T12:17:53;101146.34;;;20.06;56.43
50550;BME280;36505;52.512;13.460;2022-10-16T12:22:52;101128.69;;;19.97;55.05
50550;BME280;36505;52.512;13.460;2022-10-16T12:25:28;101143.94;;;20.00;55.25
50550;BME280;36505;52.512;13.460;2022-10-16T12:28:20;101142.97;;;19.91;56.10
50550;BME280;36505;52.512;13.460;2022-10-16T12:31:13;101151.31;;;19.91;55.99
50550;BME280;36505;52.512;13.460;2022-10-16T12:33:52;101145.56;;;19.82;55.79
50550;BME280;36505;52.512;13.460;2022-10-16T12:36:47;101157.88;;;19.76;55.83
50550;BME280;36505;52.512;13.460;2022-10-16T12:39:24;101151.22;;;19.72;55.34
50550;BME280;36505;52.512;13.460;2022-10-16T12:42:19;101151.91;;;19.64;55.27
50550;BME280;36505;52.512;13.460;2022-10-16T12:44:45;101156.09;;;19.61;55.03
50550;BME280;36505;52.512;13.460;2022-10-16T12:49:55;101157.63;;;19.49;55.11
50550;BME280;36505;52.512;13.460;2022-10-16T12:52:25;101163.47;;;19.42;55.77
50550;BME280;36505;52.512;13.460;2022-10-16T12:54:51;101167.44;;;19.36;56.29
50550;BME280;36505;52.512;13.460;2022-10-16T13:03:48;101167.81;;;19.24;55.43
50550;BME280;36505;52.512;13.460;2022-10-16T13:09:08;101166.19;;;19.18;56.54
50550;BME280;36505;52.512;13.460;2022-10-16T13:17:09;101185.41;;;19.15;56.40
50550;BME280;36505;52.512;13.460;2022-10-16T13:19:50;101192.34;;;19.12;56.74
50550;BME280;36505;52.512;13.460;2022-10-16T13:27:55;101195.47;;;19.06;55.85
50550;BME280;36505;52.512;13.460;2022-10-16T13:30:26;101204.38;;;19.03;55.78
50550;BME280;36505;52.512;13.460;2022-10-16T13:33:06;101195.78;;;18.99;55.79
50550;BME280;36505;52.512;13.460;2022-10-16T13:35:34;101201.06;;;19.01;55.53
50550;BME280;36505;52.512;13.460;2022-10-16T13:38:15;101211.03;;;19.02;55.96
50550;BME280;36505;52.512;13.460;2022-10-16T13:43:19;101215.47;;;19.03;56.12
50550;BME280;36505;52.512;13.460;2022-10-16T13:45:56;101210.22;;;19.01;55.50
50550;BME280;36505;52.512;13.460;2022-10-16T13:48:22;101206.66;;;18.96;55.97
50550;BME280;36505;52.512;13.460;2022-10-16T13:50:58;101208.84;;;18.99;55.97
50550;BME280;36505;52.512;13.460;2022-10-16T13:53:24;101209.13;;;18.97;56.26
50550;BME280;36505;52.512;13.460;2022-10-16T13:55:49;101203.06;;;18.95;56.64
50550;BME280;36505;52.512;13.460;2022-10-16T13:58:15;101210.28;;;18.91;56.62
50550;BME280;36505;52.512;13.460;2022-10-16T14:00:53;101208.38;;;18.86;56.84
50550;BME280;36505;52.512;13.460;2022-10-16T14:03:19;101209.81;;;18.79;57.07
50550;BME280;36505;52.512;13.460;2022-10-16T14:05:51;101208.75;;;18.75;57.26
50550;BME280;36505;52.512;13.460;2022-10-16T14:08:17;101213.19;;;18.71;56.92
50550;BME280;36505;52.512;13.460;2022-10-16T14:10:42;101219.88;;;18.65;57.12
50550;BME280;36505;52.512;13.460;2022-10-16T14:13:17;101222.41;;;18.61;57.07
50550;BME280;36505;52.512;13.460;2022-10-16T14:15:47;101225.75;;;18.58;57.10
50550;BME280;36505;52.512;13.460;2022-10-16T14:18:21;101227.19;;;18.56;57.41
50550;BME280;36505;52.512;13.460;2022-10-16T14:20:48;101220.50;;;18.51;57.29
50550;BME280;36505;52.512;13.460;2022-10-16T14:23:29;101232.72;;;18.56;57.67
50550;BME280;36505;52.512;13.460;2022-10-16T14:26:16;101233.53;;;18.51;57.50
50550;BME280;36505;52.512;13.460;2022-10-16T14:28:43;101233.81;;;18.49;57.73
50550;BME280;36505;52.512;13.460;2022-10-16T14:31:41;101238.28;;;18.45;57.85
50550;BME280;36505;52.512;13.460;2022-10-16T14:34:27;101229.16;;;18.40;58.08
50550;BME280;36505;52.512;13.460;2022-10-16T14:36:54;101228.31;;;18.39;58.60
50550;BME280;36505;52.512;13.460;2022-10-16T14:39:21;101233.31;;;18.37;58.62
50550;BME280;36505;52.512;13.460;2022-10-16T14:41:49;101228.34;;;18.34;58.94